sensor_id;sensor_type;location;lat;lon;timestamp;P1;durP1;ratioP1;P2;durP2;ratioP2
357;SDS011;167;47.558;7.602;2023-03-16T00:02:12;5.83;;;3.30;;
357;SDS011;167;47.558;7.602;2023-03-16T00:04:38;3.20;;;2.50;;
357;SDS011;167;47.558;7.602;2023-03-16T00:07:08;3.10;;;2.87;;
357;SDS011;167;47.558;7.602;2023-03-16T00:09:34;3.30;;;2.20;;
357;SDS011;167;47.558;7.602;2023-03-16T00:12:05;3.10;;;2.20;;
357;SDS011;167;47.558;7.602;2023-03-16T00:14:31;3.20;;;2.93;;
357;SDS011;167;47.558;7.602;2023-03-16T00:16:59;2.07;;;1.97;;
357;SDS011;167;47.558;7.602;2023-03-16T00:19:26;2.70;;;2.50;;
357;SDS011;167;47.558;7.602;2023-03-16T00:21:52;2.40;;;2.20;;
357;SDS011;167;47.558;7.602;2023-03-16T00:24:18;4.13;;;2.90;;
357;SDS011;167;47.558;7.602;2023-03-16T00:26:45;2.70;;;2.30;;
357;SDS011;167;47.558;7.602;2023-03-16T00:29:11;3.30;;;2.85;;
357;SDS011;167;47.558;7.602;2023-03-16T00:31:38;2.50;;;2.30;;
357;SDS011;167;47.558;7.602;2023-03-16T00:34:04;4.45;;;2.78;;
357;SDS011;167;47.558;7.602;2023-03-16T00:36:30;2.10;;;2.00;;
357;SDS011;167;47.558;7.602;2023-03-16T00:38:58;2.43;;;2.23;;
357;SDS011;167;47.558;7.602;2023-03-16T00:41:24;2.90;;;2.30;;
357;SDS011;167;47.558;7.602;2023-03-16T00:43:50;2.10;;;1.97;;
357;SDS011;167;47.558;7.602;2023-03-16T00:46:17;2.23;;;2.03;;
357;SDS011;167;47.558;7.602;2023-03-16T00:48:44;2.30;;;2.10;;
357;SDS011;167;47.558;7.602;2023-03-16T00:51:11;1.70;;;1.60;;
357;SDS011;167;47.558;7.602;2023-03-16T00:53:38;2.30;;;1.97;;
357;SDS011;167;47.558;7.602;2023-03-16T00:56:05;3.00;;;1.70;;
357;SDS011;167;47.558;7.602;2023-03-16T00:58:31;2.57;;;2.37;;
357;SDS011;167;47.558;7.602;2023-03-16T01:01:01;2.37;;;2.13;;
357;SDS011;167;47.558;7.602;2023-03-16T01:03:27;2.38;;;2.20;;
357;SDS011;167;47.558;7.602;2023-03-16T01:05:53;2.93;;;1.90;;
357;SDS011;167;47.558;7.602;2023-03-16T01:08:23;3.10;;;2.37;;
357;SDS011;167;47.558;7.602;2023-03-16T01:10:51;2.30;;;2.20;;
357;SDS011;167;47.558;7.602;2023-03-16T01:13:17;3.43;;;2.33;;
357;SDS011;167;47.558;7.602;2023-03-16T01:15:43;2.00;;;1.80;;
357;SDS011;167;47.558;7.602;2023-03-16T01:18:09;4.50;;;2.40;;
357;SDS011;167;47.558;7.602;2023-03-16T01:20:37;2.13;;;1.70;;
357;SDS011;167;47.558;7.602;2023-03-16T01:23:03;2.37;;;2.20;;
357;SDS011;167;47.558;7.602;2023-03-16T01:25:29;1.93;;;1.83;;
357;SDS011;167;47.558;7.602;2023-03-16T01:27:56;3.07;;;2.63;;
357;SDS011;167;47.558;7.602;2023-03-16T01:30:22;1.43;;;1.30;;
357;SDS011;167;47.558;7.602;2023-03-16T01:32:48;2.08;;;1.85;;
357;SDS011;167;47.558;7.602;2023-03-16T01:35:15;2.23;;;2.00;;
357;SDS011;167;47.558;7.602;2023-03-16T01:37:41;2.93;;;1.80;;
357;SDS011;167;47.558;7.602;2023-03-16T01:40:07;3.30;;;1.80;;
357;SDS011;167;47.558;7.602;2023-03-16T01:42:44;2.97;;;2.40;;
357;SDS011;167;47.558;7.602;2023-03-16T01:47:56;3.05;;;2.67;;
357;SDS011;167;47.558;7.602;2023-03-16T01:50:22;2.40;;;2.20;;
357;SDS011;167;47.558;7.602;2023-03-16T01:52:48;2.30;;;2.10;;
357;SDS011;167;47.558;7.602;2023-03-16T01:55:16;5.47;;;2.47;;
357;SDS011;167;47.558;7.602;2023-03-16T01:57:42;2.23;;;1.67;;
357;SDS011;167;47.558;7.602;2023-03-16T02:00:19;3.57;;;1.90;;
357;SDS011;167;47.558;7.602;2023-03-16T02:02:50;2.85;;;2.15;;
357;SDS011;167;47.558;7.602;2023-03-16T02:05:18;3.05;;;2.13;;
357;SDS011;167;47.558;7.602;2023-03-16T02:07:47;3.00;;;1.90;;
357;SDS011;167;47.558;7.602;2023-03-16T02:10:14;2.20;;;2.00;;
357;SDS011;167;47.558;7.602;2023-03-16T02:12:40;2.40;;;2.20;;
357;SDS011;167;47.558;7.602;2023-03-16T02:15:07;2.33;;;2.13;;
357;SDS011;167;47.558;7.602;2023-03-16T02:17:33;2.80;;;1.90;;
357;SDS011;167;47.558;7.602;2023-03-16T02:22:47;2.83;;;2.03;;
357;SDS011;167;47.558;7.602;2023-03-16T02:25:14;2.17;;;1.90;;
357;SDS011;167;47.558;7.602;2023-03-16T02:27:52;2.40;;;1.90;;
357;SDS011;167;47.558;7.602;2023-03-16T02:30:20;2.30;;;2.10;;
357;SDS011;167;47.558;7.602;2023-03-16T02:32:47;2.50;;;2.23;;
357;SDS011;167;47.558;7.602;2023-03-16T02:35:15;2.83;;;2.50;;
357;SDS011;167;47.558;7.602;2023-03-16T02:37:41;3.00;;;2.47;;
357;SDS011;167;47.558;7.602;2023-03-16T02:40:21;1.67;;;1.57;;
357;SDS011;167;47.558;7.602;2023-03-16T02:42:49;1.87;;;1.77;;
357;SDS011;167;47.558;7.602;2023-03-16T02:45:18;2.20;;;2.00;;
357;SDS011;167;47.558;7.602;2023-03-16T02:47:45;2.17;;;2.00;;
357;SDS011;167;47.558;7.602;2023-03-16T02:50:15;2.53;;;1.77;;
357;SDS011;167;47.558;7.602;2023-03-16T02:52:41;3.30;;;2.20;;
357;SDS011;167;47.558;7.602;2023-03-16T02:55:08;2.27;;;1.53;;
357;SDS011;167;47.558;7.602;2023-03-16T02:57:34;2.93;;;1.60;;
357;SDS011;167;47.558;7.602;2023-03-16T02:59:59;2.77;;;2.53;;
357;SDS011;167;47.558;7.602;2023-03-16T03:02:25;2.60;;;2.23;;
357;SDS011;167;47.558;7.602;2023-03-16T03:04:51;2.20;;;2.10;;
357;SDS011;167;47.558;7.602;2023-03-16T03:07:19;1.93;;;1.83;;
357;SDS011;167;47.558;7.602;2023-03-16T03:09:45;2.53;;;2.33;;
357;SDS011;167;47.558;7.602;2023-03-16T03:12:11;2.93;;;2.00;;
357;SDS011;167;47.558;7.602;2023-03-16T03:14:38;2.58;;;2.03;;
357;SDS011;167;47.558;7.602;2023-03-16T03:17:07;2.80;;;2.20;;
357;SDS011;167;47.558;7.602;2023-03-16T03:19:34;2.90;;;2.10;;
357;SDS011;167;47.558;7.602;2023-03-16T03:22:00;1.80;;;1.70;;
357;SDS011;167;47.558;7.602;2023-03-16T03:24:28;2.73;;;1.63;;
357;SDS011;167;47.558;7.602;2023-03-16T03:26:55;3.30;;;2.13;;
357;SDS011;167;47.558;7.602;2023-03-16T03:29:21;2.33;;;1.63;;
357;SDS011;167;47.558;7.602;2023-03-16T03:31:47;3.30;;;2.00;;
357;SDS011;167;47.558;7.602;2023-03-16T03:34:13;3.43;;;1.80;;
357;SDS011;167;47.558;7.602;2023-03-16T03:36:39;3.13;;;2.30;;
357;SDS011;167;47.558;7.602;2023-03-16T03:39:05;1.80;;;1.70;;
357;SDS011;167;47.558;7.602;2023-03-16T03:41:32;2.67;;;2.50;;
357;SDS011;167;47.558;7.602;2023-03-16T03:43:58;4.00;;;2.23;;
357;SDS011;167;47.558;7.602;2023-03-16T03:46:24;2.13;;;2.03;;
357;SDS011;167;47.558;7.602;2023-03-16T03:48:51;3.20;;;2.20;;
357;SDS011;167;47.558;7.602;2023-03-16T03:51:17;2.40;;;1.83;;
357;SDS011;167;47.558;7.602;2023-03-16T03:53:43;2.43;;;2.10;;
357;SDS011;167;47.558;7.602;2023-03-16T03:56:09;3.83;;;2.30;;
357;SDS011;167;47.558;7.602;2023-03-16T03:58:35;4.07;;;2.20;;
357;SDS011;167;47.558;7.602;2023-03-16T04:01:01;5.50;;;2.77;;
357;SDS011;167;47.558;7.602;2023-03-16T04:03:27;2.93;;;2.07;;
357;SDS011;167;47.558;7.602;2023-03-16T04:05:53;1.90;;;1.57;;
357;SDS011;167;47.558;7.602;2023-03-16T04:08:20;3.10;;;2.47;;
357;SDS011;167;47.558;7.602;2023-03-16T04:10:46;3.37;;;2.30;;
357;SDS011;167;47.558;7.602;2023-03-16T04:13:12;3.33;;;2.40;;
357;SDS011;167;47.558;7.602;2023-03-16T04:15:38;4.43;;;2.40;;
357;SDS011;167;47.558;7.602;2023-03-16T04:18:04;2.67;;;2.15;;
357;SDS011;167;47.558;7.602;2023-03-16T04:20:30;2.50;;;1.50;;
357;SDS011;167;47.558;7.602;2023-03-16T04:22:56;3.17;;;1.90;;
357;SDS011;167;47.558;7.602;2023-03-16T04:25:23;2.70;;;2.50;;
357;SDS011;167;47.558;7.602;2023-03-16T04:27:50;3.00;;;1.70;;
357;SDS011;167;47.558;7.602;2023-03-16T04:30:16;5.60;;;2.43;;
357;SDS011;167;47.558;7.602;2023-03-16T04:32:42;2.15;;;1.95;;
357;SDS011;167;47.558;7.602;2023-03-16T04:35:08;3.10;;;1.63;;
357;SDS011;167;47.558;7.602;2023-03-16T04:37:34;3.90;;;2.83;;
357;SDS011;167;47.558;7.602;2023-03-16T04:40:00;5.73;;;2.73;;
357;SDS011;167;47.558;7.602;2023-03-16T04:42:34;1.80;;;1.58;;
357;SDS011;167;47.558;7.602;2023-03-16T04:45:00;1.73;;;1.63;;
357;SDS011;167;47.558;7.602;2023-03-16T04:47:26;3.00;;;2.07;;
357;SDS011;167;47.558;7.602;2023-03-16T04:49:54;2.70;;;1.93;;
357;SDS011;167;47.558;7.602;2023-03-16T04:52:20;2.43;;;2.23;;
357;SDS011;167;47.558;7.602;2023-03-16T04:54:46;2.40;;;2.07;;
357;SDS011;167;47.558;7.602;2023-03-16T04:57:12;2.77;;;2.10;;
357;SDS011;167;47.558;7.602;2023-03-16T04:59:38;1.30;;;1.30;;
357;SDS011;167;47.558;7.602;2023-03-16T05:02:05;2.90;;;2.67;;
357;SDS011;167;47.558;7.602;2023-03-16T05:04:31;3.27;;;2.30;;
357;SDS011;167;47.558;7.602;2023-03-16T05:06:58;2.03;;;1.93;;
357;SDS011;167;47.558;7.602;2023-03-16T05:09:24;2.20;;;2.00;;
357;SDS011;167;47.558;7.602;2023-03-16T05:11:50;2.27;;;2.07;;
357;SDS011;167;47.558;7.602;2023-03-16T05:14:16;3.10;;;2.80;;
357;SDS011;167;47.558;7.602;2023-03-16T05:16:42;2.80;;;2.60;;
357;SDS011;167;47.558;7.602;2023-03-16T05:19:08;4.57;;;2.97;;
357;SDS011;167;47.558;7.602;2023-03-16T05:21:34;2.37;;;1.83;;
357;SDS011;167;47.558;7.602;2023-03-16T05:24:02;2.20;;;2.10;;
357;SDS011;167;47.558;7.602;2023-03-16T05:26:28;1.87;;;1.77;;
357;SDS011;167;47.558;7.602;2023-03-16T05:28:54;2.00;;;1.90;;
357;SDS011;167;47.558;7.602;2023-03-16T05:31:20;1.73;;;1.60;;
357;SDS011;167;47.558;7.602;2023-03-16T05:33:47;1.80;;;1.70;;
357;SDS011;167;47.558;7.602;2023-03-16T05:36:12;1.97;;;1.70;;
357;SDS011;167;47.558;7.602;2023-03-16T05:38:38;1.90;;;1.70;;
357;SDS011;167;47.558;7.602;2023-03-16T05:41:04;1.70;;;1.60;;
357;SDS011;167;47.558;7.602;2023-03-16T05:43:31;2.03;;;1.83;;
357;SDS011;167;47.558;7.602;2023-03-16T05:45:58;1.53;;;1.43;;
357;SDS011;167;47.558;7.602;2023-03-16T05:48:24;1.85;;;1.75;;
357;SDS011;167;47.558;7.602;2023-03-16T05:50:50;2.87;;;1.60;;
357;SDS011;167;47.558;7.602;2023-03-16T05:53:17;1.73;;;1.53;;
357;SDS011;167;47.558;7.602;2023-03-16T05:55:44;1.87;;;1.77;;
357;SDS011;167;47.558;7.602;2023-03-16T05:58:10;1.92;;;1.83;;
357;SDS011;167;47.558;7.602;2023-03-16T06:00:36;1.80;;;1.30;;
357;SDS011;167;47.558;7.602;2023-03-16T06:03:03;1.50;;;1.40;;
357;SDS011;167;47.558;7.602;2023-03-16T06:05:29;1.90;;;1.80;;
357;SDS011;167;47.558;7.602;2023-03-16T06:07:56;4.50;;;1.90;;
357;SDS011;167;47.558;7.602;2023-03-16T06:10:22;1.90;;;1.77;;
357;SDS011;167;47.558;7.602;2023-03-16T06:12:50;3.27;;;1.73;;
357;SDS011;167;47.558;7.602;2023-03-16T06:15:16;1.85;;;1.75;;
357;SDS011;167;47.558;7.602;2023-03-16T06:17:42;2.95;;;1.85;;
357;SDS011;167;47.558;7.602;2023-03-16T06:20:08;2.90;;;1.85;;
357;SDS011;167;47.558;7.602;2023-03-16T06:22:38;1.80;;;1.43;;
357;SDS011;167;47.558;7.602;2023-03-16T06:25:05;1.60;;;1.50;;
357;SDS011;167;47.558;7.602;2023-03-16T06:27:31;11.10;;;2.65;;
357;SDS011;167;47.558;7.602;2023-03-16T06:29:57;9.70;;;2.60;;
357;SDS011;167;47.558;7.602;2023-03-16T06:32:23;3.83;;;2.60;;
357;SDS011;167;47.558;7.602;2023-03-16T06:34:48;4.27;;;2.23;;
357;SDS011;167;47.558;7.602;2023-03-16T06:37:15;5.50;;;2.50;;
357;SDS011;167;47.558;7.602;2023-03-16T06:39:41;4.43;;;3.10;;
357;SDS011;167;47.558;7.602;2023-03-16T06:42:08;2.30;;;2.10;;
357;SDS011;167;47.558;7.602;2023-03-16T06:44:34;3.43;;;2.30;;
357;SDS011;167;47.558;7.602;2023-03-16T06:47:01;2.42;;;2.22;;
357;SDS011;167;47.558;7.602;2023-03-16T06:49:28;2.93;;;2.40;;
357;SDS011;167;47.558;7.602;2023-03-16T06:51:54;4.93;;;4.43;;
357;SDS011;167;47.558;7.602;2023-03-16T06:54:22;4.20;;;3.10;;
357;SDS011;167;47.558;7.602;2023-03-16T06:56:48;3.20;;;2.90;;
357;SDS011;167;47.558;7.602;2023-03-16T06:59:16;5.90;;;2.58;;
357;SDS011;167;47.558;7.602;2023-03-16T07:01:42;3.37;;;2.50;;
357;SDS011;167;47.558;7.602;2023-03-16T07:04:09;2.90;;;2.80;;
357;SDS011;167;47.558;7.602;2023-03-16T07:06:36;2.93;;;2.63;;
357;SDS011;167;47.558;7.602;2023-03-16T07:09:02;2.07;;;1.90;;
357;SDS011;167;47.558;7.602;2023-03-16T07:11:29;2.17;;;2.07;;
357;SDS011;167;47.558;7.602;2023-03-16T07:13:56;2.60;;;2.40;;
357;SDS011;167;47.558;7.602;2023-03-16T07:16:23;2.70;;;2.40;;
357;SDS011;167;47.558;7.602;2023-03-16T07:18:49;5.00;;;2.20;;
357;SDS011;167;47.558;7.602;2023-03-16T07:21:16;6.47;;;2.83;;
357;SDS011;167;47.558;7.602;2023-03-16T07:23:42;20.77;;;4.00;;
357;SDS011;167;47.558;7.602;2023-03-16T07:26:08;10.97;;;3.60;;
357;SDS011;167;47.558;7.602;2023-03-16T07:28:36;2.57;;;2.33;;
357;SDS011;167;47.558;7.602;2023-03-16T07:31:02;5.47;;;2.30;;
357;SDS011;167;47.558;7.602;2023-03-16T07:33:28;8.10;;;2.87;;
357;SDS011;167;47.558;7.602;2023-03-16T07:35:54;15.98;;;4.03;;
357;SDS011;167;47.558;7.602;2023-03-16T07:38:20;2.90;;;2.60;;
357;SDS011;167;47.558;7.602;2023-03-16T07:40:46;2.83;;;2.43;;
357;SDS011;167;47.558;7.602;2023-03-16T07:43:12;14.65;;;3.22;;
357;SDS011;167;47.558;7.602;2023-03-16T07:45:38;2.03;;;1.93;;
357;SDS011;167;47.558;7.602;2023-03-16T07:48:04;4.03;;;2.40;;
357;SDS011;167;47.558;7.602;2023-03-16T07:50:30;20.13;;;3.90;;
357;SDS011;167;47.558;7.602;2023-03-16T07:52:56;10.88;;;3.00;;
357;SDS011;167;47.558;7.602;2023-03-16T07:55:22;2.43;;;2.23;;
357;SDS011;167;47.558;7.602;2023-03-16T07:57:48;2.93;;;2.73;;
357;SDS011;167;47.558;7.602;2023-03-16T08:00:14;3.00;;;2.80;;
357;SDS011;167;47.558;7.602;2023-03-16T08:02:40;7.77;;;3.70;;
357;SDS011;167;47.558;7.602;2023-03-16T08:05:06;3.17;;;2.83;;
357;SDS011;167;47.558;7.602;2023-03-16T08:07:36;4.37;;;3.30;;
357;SDS011;167;47.558;7.602;2023-03-16T08:10:02;4.83;;;3.27;;
357;SDS011;167;47.558;7.602;2023-03-16T08:12:29;3.57;;;3.27;;
357;SDS011;167;47.558;7.602;2023-03-16T08:14:55;3.80;;;3.53;;
357;SDS011;167;47.558;7.602;2023-03-16T08:17:21;2.70;;;2.60;;
357;SDS011;167;47.558;7.602;2023-03-16T08:19:47;3.23;;;3.00;;
357;SDS011;167;47.558;7.602;2023-03-16T08:22:13;3.70;;;3.60;;
357;SDS011;167;47.558;7.602;2023-03-16T08:24:39;2.50;;;2.40;;
357;SDS011;167;47.558;7.602;2023-03-16T08:27:06;2.90;;;2.70;;
357;SDS011;167;47.558;7.602;2023-03-16T08:29:32;3.08;;;2.97;;
357;SDS011;167;47.558;7.602;2023-03-16T08:31:58;3.30;;;3.20;;
357;SDS011;167;47.558;7.602;2023-03-16T08:34:25;3.63;;;3.33;;
357;SDS011;167;47.558;7.602;2023-03-16T08:36:51;3.90;;;3.60;;
357;SDS011;167;47.558;7.602;2023-03-16T08:39:18;6.20;;;5.90;;
357;SDS011;167;47.558;7.602;2023-03-16T08:41:44;9.50;;;9.23;;
357;SDS011;167;47.558;7.602;2023-03-16T08:44:11;7.83;;;6.30;;
357;SDS011;167;47.558;7.602;2023-03-16T08:46:37;12.40;;;12.10;;
357;SDS011;167;47.558;7.602;2023-03-16T08:49:03;19.87;;;19.30;;
357;SDS011;167;47.558;7.602;2023-03-16T08:51:30;6.70;;;6.40;;
357;SDS011;167;47.558;7.602;2023-03-16T08:53:56;9.47;;;9.17;;
357;SDS011;167;47.558;7.602;2023-03-16T08:56:23;6.93;;;6.72;;
357;SDS011;167;47.558;7.602;2023-03-16T08:58:49;13.40;;;13.07;;
357;SDS011;167;47.558;7.602;2023-03-16T09:01:16;25.10;;;24.30;;
357;SDS011;167;47.558;7.602;2023-03-16T09:03:43;19.70;;;19.17;;
357;SDS011;167;47.558;7.602;2023-03-16T09:06:10;29.73;;;28.97;;
357;SDS011;167;47.558;7.602;2023-03-16T09:08:37;22.30;;;21.73;;
357;SDS011;167;47.558;7.602;2023-03-16T09:11:04;19.73;;;19.23;;
357;SDS011;167;47.558;7.602;2023-03-16T09:13:32;6.50;;;6.40;;
357;SDS011;167;47.558;7.602;2023-03-16T09:15:58;35.17;;;34.27;;
357;SDS011;167;47.558;7.602;2023-03-16T09:18:25;7.70;;;7.50;;
357;SDS011;167;47.558;7.602;2023-03-16T09:20:52;17.73;;;17.30;;
357;SDS011;167;47.558;7.602;2023-03-16T09:23:18;11.80;;;11.50;;
357;SDS011;167;47.558;7.602;2023-03-16T09:25:44;9.93;;;9.73;;
357;SDS011;167;47.558;7.602;2023-03-16T09:28:10;11.07;;;10.67;;
357;SDS011;167;47.558;7.602;2023-03-16T09:30:36;14.07;;;13.63;;
357;SDS011;167;47.558;7.602;2023-03-16T09:33:02;13.83;;;13.33;;
357;SDS011;167;47.558;7.602;2023-03-16T09:35:28;26.40;;;25.70;;
357;SDS011;167;47.558;7.602;2023-03-16T09:37:56;32.85;;;32.03;;
357;SDS011;167;47.558;7.602;2023-03-16T09:40:23;13.90;;;13.40;;
357;SDS011;167;47.558;7.602;2023-03-16T09:43:38;8.30;;;8.03;;
357;SDS011;167;47.558;7.602;2023-03-16T09:45:48;34.67;;;33.60;;
357;SDS011;167;47.558;7.602;2023-03-16T09:48:17;6.23;;;5.93;;
357;SDS011;167;47.558;7.602;2023-03-16T09:50:45;9.83;;;9.40;;
357;SDS011;167;47.558;7.602;2023-03-16T09:55:42;2.10;;;2.00;;
357;SDS011;167;47.558;7.602;2023-03-16T09:58:18;2.10;;;2.00;;
357;SDS011;167;47.558;7.602;2023-03-16T10:00:48;3.17;;;1.70;;
357;SDS011;167;47.558;7.602;2023-03-16T10:05:42;2.03;;;1.87;;
357;SDS011;167;47.558;7.602;2023-03-16T10:08:15;1.70;;;1.70;;
357;SDS011;167;47.558;7.602;2023-03-16T10:10:54;1.60;;;1.50;;
357;SDS011;167;47.558;7.602;2023-03-16T10:15:52;1.80;;;1.70;;
357;SDS011;167;47.558;7.602;2023-03-16T10:18:19;1.47;;;1.37;;
357;SDS011;167;47.558;7.602;2023-03-16T10:20:48;1.60;;;1.60;;
357;SDS011;167;47.558;7.602;2023-03-16T10:23:16;1.63;;;1.53;;
357;SDS011;167;47.558;7.602;2023-03-16T10:25:45;2.00;;;1.90;;
357;SDS011;167;47.558;7.602;2023-03-16T10:28:15;1.50;;;1.40;;
357;SDS011;167;47.558;7.602;2023-03-16T10:30:42;1.98;;;1.77;;
357;SDS011;167;47.558;7.602;2023-03-16T10:35:47;3.00;;;1.73;;
357;SDS011;167;47.558;7.602;2023-03-16T10:40:57;1.47;;;1.37;;
357;SDS011;167;47.558;7.602;2023-03-16T10:43:23;1.70;;;1.60;;
357;SDS011;167;47.558;7.602;2023-03-16T10:45:49;2.67;;;1.88;;
357;SDS011;167;47.558;7.602;2023-03-16T10:48:16;2.45;;;1.42;;
357;SDS011;167;47.558;7.602;2023-03-16T10:50:43;1.80;;;1.70;;
357;SDS011;167;47.558;7.602;2023-03-16T10:53:20;1.50;;;1.40;;
357;SDS011;167;47.558;7.602;2023-03-16T10:55:47;3.10;;;1.80;;
357;SDS011;167;47.558;7.602;2023-03-16T10:58:24;3.00;;;2.00;;
357;SDS011;167;47.558;7.602;2023-03-16T11:00:51;1.87;;;1.77;;
357;SDS011;167;47.558;7.602;2023-03-16T11:05:47;1.80;;;1.70;;
357;SDS011;167;47.558;7.602;2023-03-16T11:08:14;1.97;;;1.83;;
357;SDS011;167;47.558;7.602;2023-03-16T11:10:44;1.60;;;1.50;;
357;SDS011;167;47.558;7.602;2023-03-16T11:13:14;1.60;;;1.43;;
357;SDS011;167;47.558;7.602;2023-03-16T11:15:43;1.70;;;1.60;;
357;SDS011;167;47.558;7.602;2023-03-16T11:18:21;1.90;;;1.80;;
357;SDS011;167;47.558;7.602;2023-03-16T11:20:49;1.67;;;1.57;;
357;SDS011;167;47.558;7.602;2023-03-16T11:23:27;3.07;;;2.30;;
357;SDS011;167;47.558;7.602;2023-03-16T11:25:54;1.50;;;1.50;;
357;SDS011;167;47.558;7.602;2023-03-16T11:31:02;3.07;;;1.70;;
357;SDS011;167;47.558;7.602;2023-03-16T11:33:30;2.07;;;1.97;;
357;SDS011;167;47.558;7.602;2023-03-16T11:41:24;1.70;;;1.60;;
357;SDS011;167;47.558;7.602;2023-03-16T11:43:56;2.13;;;2.03;;
357;SDS011;167;47.558;7.602;2023-03-16T11:49:13;4.30;;;3.53;;
357;SDS011;167;47.558;7.602;2023-03-16T11:51:47;2.60;;;2.50;;
357;SDS011;167;47.558;7.602;2023-03-16T11:57:05;2.30;;;2.17;;
357;SDS011;167;47.558;7.602;2023-03-16T12:02:35;2.20;;;2.10;;
357;SDS011;167;47.558;7.602;2023-03-16T12:10:15;1.77;;;1.67;;
357;SDS011;167;47.558;7.602;2023-03-16T12:17:45;2.07;;;1.97;;
357;SDS011;167;47.558;7.602;2023-03-16T12:20:22;1.90;;;1.80;;
357;SDS011;167;47.558;7.602;2023-03-16T12:22:50;1.77;;;1.67;;
357;SDS011;167;47.558;7.602;2023-03-16T12:25:19;1.80;;;1.70;;
357;SDS011;167;47.558;7.602;2023-03-16T12:27:46;2.10;;;1.97;;
357;SDS011;167;47.558;7.602;2023-03-16T12:40:21;2.00;;;1.80;;
357;SDS011;167;47.558;7.602;2023-03-16T12:45:21;2.50;;;2.40;;
357;SDS011;167;47.558;7.602;2023-03-16T12:47:52;1.93;;;1.80;;
357;SDS011;167;47.558;7.602;2023-03-16T12:50:21;4.30;;;1.63;;
357;SDS011;167;47.558;7.602;2023-03-16T12:52:49;1.53;;;1.43;;
357;SDS011;167;47.558;7.602;2023-03-16T12:57:45;2.07;;;1.80;;
357;SDS011;167;47.558;7.602;2023-03-16T13:00:13;1.40;;;1.40;;
357;SDS011;167;47.558;7.602;2023-03-16T13:02:41;1.85;;;1.75;;
357;SDS011;167;47.558;7.602;2023-03-16T13:05:09;1.93;;;1.83;;
357;SDS011;167;47.558;7.602;2023-03-16T13:07:36;2.10;;;1.90;;
357;SDS011;167;47.558;7.602;2023-03-16T13:10:07;2.03;;;1.93;;
357;SDS011;167;47.558;7.602;2023-03-16T13:12:35;1.63;;;1.53;;
357;SDS011;167;47.558;7.602;2023-03-16T13:15:45;2.43;;;2.10;;
357;SDS011;167;47.558;7.602;2023-03-16T13:20:31;3.63;;;1.77;;
357;SDS011;167;47.558;7.602;2023-03-16T13:23:08;1.80;;;1.70;;
357;SDS011;167;47.558;7.602;2023-03-16T13:25:38;2.27;;;1.40;;
357;SDS011;167;47.558;7.602;2023-03-16T13:28:07;1.77;;;1.67;;
357;SDS011;167;47.558;7.602;2023-03-16T13:30:36;1.93;;;1.63;;
357;SDS011;167;47.558;7.602;2023-03-16T13:33:20;1.63;;;1.53;;
357;SDS011;167;47.558;7.602;2023-03-16T13:35:47;2.27;;;1.23;;
357;SDS011;167;47.558;7.602;2023-03-16T13:38:13;1.50;;;1.40;;
357;SDS011;167;47.558;7.602;2023-03-16T13:40:50;1.87;;;1.77;;
357;SDS011;167;47.558;7.602;2023-03-16T13:43:18;1.23;;;1.23;;
357;SDS011;167;47.558;7.602;2023-03-16T13:45:46;1.90;;;1.63;;
357;SDS011;167;47.558;7.602;2023-03-16T13:48:13;0.90;;;0.90;;
357;SDS011;167;47.558;7.602;2023-03-16T13:50:39;1.70;;;1.60;;
357;SDS011;167;47.558;7.602;2023-03-16T13:53:16;1.30;;;1.23;;
357;SDS011;167;47.558;7.602;2023-03-16T13:55:44;1.40;;;1.37;;
357;SDS011;167;47.558;7.602;2023-03-16T13:58:25;1.67;;;1.57;;
357;SDS011;167;47.558;7.602;2023-03-16T14:00:55;1.53;;;1.43;;
357;SDS011;167;47.558;7.602;2023-03-16T14:03:22;1.73;;;1.63;;
357;SDS011;167;47.558;7.602;2023-03-16T14:05:48;2.23;;;1.50;;
357;SDS011;167;47.558;7.602;2023-03-16T14:08:16;1.87;;;1.77;;
357;SDS011;167;47.558;7.602;2023-03-16T14:10:42;1.27;;;1.20;;
357;SDS011;167;47.558;7.602;2023-03-16T14:13:21;2.67;;;1.73;;
357;SDS011;167;47.558;7.602;2023-03-16T14:15:48;1.60;;;1.50;;
357;SDS011;167;47.558;7.602;2023-03-16T14:18:15;1.50;;;1.40;;
357;SDS011;167;47.558;7.602;2023-03-16T14:20:45;3.80;;;2.27;;
357;SDS011;167;47.558;7.602;2023-03-16T14:23:24;2.20;;;1.50;;
357;SDS011;167;47.558;7.602;2023-03-16T14:25:52;2.25;;;1.90;;
357;SDS011;167;47.558;7.602;2023-03-16T14:28:19;1.80;;;1.70;;
357;SDS011;167;47.558;7.602;2023-03-16T14:30:53;1.63;;;1.53;;
357;SDS011;167;47.558;7.602;2023-03-16T14:33:25;2.23;;;1.60;;
357;SDS011;167;47.558;7.602;2023-03-16T14:35:58;1.47;;;1.23;;
357;SDS011;167;47.558;7.602;2023-03-16T14:38:29;1.20;;;1.10;;
357;SDS011;167;47.558;7.602;2023-03-16T14:40:57;1.40;;;1.40;;
357;SDS011;167;47.558;7.602;2023-03-16T14:43:28;1.20;;;1.20;;
357;SDS011;167;47.558;7.602;2023-03-16T14:45:54;3.70;;;1.60;;
357;SDS011;167;47.558;7.602;2023-03-16T14:48:20;1.80;;;1.70;;
357;SDS011;167;47.558;7.602;2023-03-16T14:50:48;1.13;;;1.13;;
357;SDS011;167;47.558;7.602;2023-03-16T14:53:16;1.03;;;1.03;;
357;SDS011;167;47.558;7.602;2023-03-16T14:55:42;2.60;;;1.20;;
357;SDS011;167;47.558;7.602;2023-03-16T14:58:08;1.30;;;1.20;;
357;SDS011;167;47.558;7.602;2023-03-16T15:00:34;3.35;;;1.50;;
357;SDS011;167;47.558;7.602;2023-03-16T15:03:02;1.37;;;1.27;;
357;SDS011;167;47.558;7.602;2023-03-16T15:05:34;1.37;;;1.27;;
357;SDS011;167;47.558;7.602;2023-03-16T15:08:01;1.20;;;1.20;;
357;SDS011;167;47.558;7.602;2023-03-16T15:10:28;1.50;;;1.40;;
357;SDS011;167;47.558;7.602;2023-03-16T15:12:54;1.33;;;1.30;;
357;SDS011;167;47.558;7.602;2023-03-16T15:15:30;1.13;;;1.13;;
357;SDS011;167;47.558;7.602;2023-03-16T15:17:56;1.23;;;1.20;;
357;SDS011;167;47.558;7.602;2023-03-16T15:20:24;1.00;;;1.00;;
357;SDS011;167;47.558;7.602;2023-03-16T15:22:53;1.53;;;1.53;;
357;SDS011;167;47.558;7.602;2023-03-16T15:25:24;6.10;;;2.00;;
357;SDS011;167;47.558;7.602;2023-03-16T15:27:51;3.60;;;1.50;;
357;SDS011;167;47.558;7.602;2023-03-16T15:30:22;1.50;;;1.40;;
357;SDS011;167;47.558;7.602;2023-03-16T15:32:48;1.37;;;1.30;;
357;SDS011;167;47.558;7.602;2023-03-16T15:35:14;1.10;;;1.10;;
357;SDS011;167;47.558;7.602;2023-03-16T15:37:41;1.53;;;1.17;;
357;SDS011;167;47.558;7.602;2023-03-16T15:40:17;2.20;;;1.20;;
357;SDS011;167;47.558;7.602;2023-03-16T15:42:43;1.10;;;1.10;;
357;SDS011;167;47.558;7.602;2023-03-16T15:45:11;1.37;;;1.27;;
357;SDS011;167;47.558;7.602;2023-03-16T15:47:37;1.20;;;1.20;;
357;SDS011;167;47.558;7.602;2023-03-16T15:50:05;2.53;;;2.33;;
357;SDS011;167;47.558;7.602;2023-03-16T15:52:32;1.90;;;1.80;;
357;SDS011;167;47.558;7.602;2023-03-16T15:55:00;1.30;;;1.20;;
357;SDS011;167;47.558;7.602;2023-03-16T15:57:31;1.17;;;1.07;;
357;SDS011;167;47.558;7.602;2023-03-16T15:59:57;1.10;;;1.10;;
357;SDS011;167;47.558;7.602;2023-03-16T16:02:27;1.57;;;1.47;;
357;SDS011;167;47.558;7.602;2023-03-16T16:04:53;1.80;;;1.70;;
357;SDS011;167;47.558;7.602;2023-03-16T16:07:20;1.87;;;1.77;;
357;SDS011;167;47.558;7.602;2023-03-16T16:09:46;1.00;;;1.00;;
357;SDS011;167;47.558;7.602;2023-03-16T16:12:12;1.77;;;1.30;;
357;SDS011;167;47.558;7.602;2023-03-16T16:14:38;1.47;;;1.30;;
357;SDS011;167;47.558;7.602;2023-03-16T16:17:11;1.27;;;1.13;;
357;SDS011;167;47.558;7.602;2023-03-16T16:19:42;1.83;;;1.43;;
357;SDS011;167;47.558;7.602;2023-03-16T16:22:11;1.63;;;1.53;;
357;SDS011;167;47.558;7.602;2023-03-16T16:24:38;1.53;;;1.37;;
357;SDS011;167;47.558;7.602;2023-03-16T16:27:04;2.60;;;1.33;;
357;SDS011;167;47.558;7.602;2023-03-16T16:29:30;1.10;;;1.10;;
357;SDS011;167;47.558;7.602;2023-03-16T16:31:58;1.10;;;1.10;;
357;SDS011;167;47.558;7.602;2023-03-16T16:34:24;3.17;;;1.30;;
357;SDS011;167;47.558;7.602;2023-03-16T16:36:51;1.47;;;1.37;;
357;SDS011;167;47.558;7.602;2023-03-16T16:39:18;0.90;;;0.90;;
357;SDS011;167;47.558;7.602;2023-03-16T16:41:43;1.43;;;1.33;;
357;SDS011;167;47.558;7.602;2023-03-16T16:44:19;1.90;;;1.80;;
357;SDS011;167;47.558;7.602;2023-03-16T16:46:47;1.03;;;0.93;;
357;SDS011;167;47.558;7.602;2023-03-16T16:49:32;1.77;;;1.67;;
357;SDS011;167;47.558;7.602;2023-03-16T16:51:58;1.60;;;1.50;;
357;SDS011;167;47.558;7.602;2023-03-16T16:54:29;1.53;;;1.33;;